createdAt,value
2022-09-30T00:01:43.036Z,99.90
2022-09-30T00:04:16.512Z,99.90
2022-09-30T00:06:44.677Z,99.90
2022-09-30T00:09:13.359Z,99.90
2022-09-30T00:11:42.270Z,99.90
2022-09-30T00:14:15.296Z,99.90
2022-09-30T00:16:43.689Z,99.90
2022-09-30T00:19:13.405Z,99.90
2022-09-30T00:21:41.656Z,99.90
2022-09-30T00:24:10.012Z,99.90
2022-09-30T00:26:38.083Z,99.90
2022-09-30T00:29:06.411Z,99.90
2022-09-30T00:31:36.107Z,99.90
2022-09-30T00:34:11.783Z,99.90
2022-09-30T00:36:44.840Z,99.90
2022-09-30T00:39:18.710Z,99.90
2022-09-30T00:41:49.146Z,99.90
2022-09-30T00:45:00.024Z,99.90
2022-09-30T00:47:51.647Z,99.90
2022-09-30T00:50:33.070Z,99.90
2022-09-30T00:53:10.879Z,99.90
2022-09-30T00:55:47.430Z,99.90
2022-09-30T00:58:20.578Z,99.90
2022-09-30T01:00:49.018Z,99.90
2022-09-30T01:03:17.161Z,99.90
2022-09-30T01:05:45.075Z,99.90
2022-09-30T01:08:18.593Z,99.90
2022-09-30T01:10:46.826Z,99.90
2022-09-30T01:13:15.437Z,99.90
2022-09-30T01:15:57.718Z,99.90
2022-09-30T01:18:35.832Z,99.90
2022-09-30T01:21:25.554Z,99.90
2022-09-30T01:24:27.459Z,99.90
2022-09-30T01:27:15.236Z,99.90
2022-09-30T01:30:04.583Z,99.90
2022-09-30T01:32:56.891Z,99.90
2022-09-30T01:35:38.921Z,99.90
2022-09-30T01:38:17.011Z,99.90
2022-09-30T01:40:50.450Z,99.90
2022-09-30T01:43:29.708Z,99.90
2022-09-30T01:46:00.281Z,99.90
2022-09-30T01:48:38.370Z,99.90
2022-09-30T01:51:11.135Z,99.90
2022-09-30T01:53:46.434Z,99.90
2022-09-30T01:56:19.735Z,99.90
2022-09-30T01:58:55.525Z,99.90
2022-09-30T02:01:31.668Z,99.90
2022-09-30T02:04:06.309Z,99.90
2022-09-30T02:06:39.114Z,99.90
2022-09-30T02:09:12.474Z,99.90
2022-09-30T02:11:42.559Z,99.90
2022-09-30T02:14:17.225Z,99.90
2022-09-30T02:16:53.962Z,99.90
2022-09-30T02:19:29.006Z,99.90
2022-09-30T02:22:00.966Z,99.90
2022-09-30T02:24:37.115Z,99.90
2022-09-30T02:27:08.288Z,99.90
2022-09-30T02:29:40.630Z,99.90
2022-09-30T02:32:14.099Z,99.90
2022-09-30T02:34:47.622Z,99.90
2022-09-30T02:37:19.509Z,99.90
2022-09-30T02:39:53.483Z,99.90
2022-09-30T02:42:26.864Z,99.90
2022-09-30T02:44:57.859Z,99.90
2022-09-30T02:47:31.927Z,99.90
2022-09-30T02:50:07.349Z,99.90
2022-09-30T02:52:49.354Z,99.90
2022-09-30T02:55:24.383Z,99.90
2022-09-30T02:58:00.886Z,99.90
2022-09-30T03:00:30.238Z,99.90
2022-09-30T03:03:06.477Z,99.90
2022-09-30T03:05:35.996Z,99.90
2022-09-30T03:08:04.234Z,99.90
2022-09-30T03:10:34.087Z,99.90
2022-09-30T03:13:21.711Z,99.90
2022-09-30T03:16:05.743Z,99.90
2022-09-30T03:19:01.162Z,99.90
2022-09-30T03:21:44.061Z,99.90
2022-09-30T03:24:32.014Z,99.90
2022-09-30T03:27:14.603Z,99.90
2022-09-30T03:29:51.829Z,99.90
2022-09-30T03:32:34.195Z,99.90
2022-09-30T03:35:08.847Z,99.90
2022-09-30T03:37:45.612Z,99.90
2022-09-30T03:40:19.720Z,99.90
2022-09-30T03:42:53.866Z,99.90
2022-09-30T03:45:27.747Z,99.90
2022-09-30T03:48:03.171Z,99.90
2022-09-30T03:50:33.027Z,99.90
2022-09-30T03:53:02.763Z,99.90
2022-09-30T03:55:31.783Z,99.90
2022-09-30T03:57:59.731Z,99.90
2022-09-30T04:00:27.906Z,99.90
2022-09-30T04:02:57.851Z,99.90
2022-09-30T04:05:26.065Z,99.90
2022-09-30T04:07:54.018Z,99.90
2022-09-30T04:10:23.340Z,99.90
2022-09-30T04:12:54.882Z,99.90
2022-09-30T04:15:22.860Z,99.90
2022-09-30T04:17:51.075Z,99.90
2022-09-30T04:20:19.063Z,99.90
2022-09-30T04:22:47.066Z,99.90
2022-09-30T04:25:15.326Z,99.90
2022-09-30T04:27:44.607Z,99.90
2022-09-30T04:30:13.319Z,99.90
2022-09-30T04:32:45.657Z,99.90
2022-09-30T04:35:14.584Z,99.90
2022-09-30T04:37:44.713Z,99.90
2022-09-30T04:40:13.681Z,99.90
2022-09-30T04:42:43.082Z,99.90
2022-09-30T04:45:14.174Z,99.90
2022-09-30T04:47:45.339Z,99.90
2022-09-30T04:50:14.451Z,99.90
2022-09-30T04:52:44.409Z,99.90
2022-09-30T04:55:12.707Z,99.90
2022-09-30T04:57:40.784Z,99.90
2022-09-30T05:00:11.153Z,99.90
2022-09-30T05:02:40.507Z,99.90
2022-09-30T05:05:09.569Z,99.90
2022-09-30T05:07:37.533Z,99.90
2022-09-30T05:10:07.445Z,99.90
2022-09-30T05:12:37.651Z,99.90
2022-09-30T05:15:06.521Z,99.90
2022-09-30T05:17:34.744Z,99.90
2022-09-30T05:20:05.281Z,99.90
2022-09-30T05:22:33.218Z,99.90
2022-09-30T05:25:03.917Z,99.90
2022-09-30T05:27:31.861Z,99.90
2022-09-30T05:29:59.819Z,99.90
2022-09-30T05:32:31.671Z,99.90
2022-09-30T05:34:59.589Z,99.90
2022-09-30T05:37:28.873Z,99.90
2022-09-30T05:39:57.268Z,99.90
2022-09-30T05:42:25.356Z,99.90
2022-09-30T05:44:53.462Z,99.90
2022-09-30T05:47:21.535Z,99.90
2022-09-30T05:49:53.017Z,99.90
2022-09-30T05:52:23.321Z,99.90
2022-09-30T05:54:52.599Z,99.90
2022-09-30T05:57:21.008Z,99.90
2022-09-30T05:59:48.903Z,99.90
2022-09-30T06:02:19.378Z,99.90
2022-09-30T06:04:47.665Z,99.90
2022-09-30T06:07:15.576Z,99.90
2022-09-30T06:09:43.685Z,99.90
2022-09-30T06:12:13.152Z,99.90
2022-09-30T06:14:41.088Z,99.90
2022-09-30T06:17:09.072Z,99.90
2022-09-30T06:19:37.108Z,99.90
2022-09-30T06:22:05.203Z,99.90
2022-09-30T06:24:33.342Z,99.90
2022-09-30T06:27:01.269Z,99.90
2022-09-30T06:29:30.604Z,99.90
2022-09-30T06:31:58.664Z,99.90
2022-09-30T06:34:26.947Z,99.90
2022-09-30T06:36:55.775Z,99.90
2022-09-30T06:39:24.559Z,99.90
2022-09-30T06:41:56.871Z,99.90
2022-09-30T06:44:25.249Z,99.90
2022-09-30T06:46:54.918Z,99.90
2022-09-30T06:49:23.794Z,99.90
2022-09-30T06:51:52.207Z,99.90
2022-09-30T06:54:21.185Z,99.90
2022-09-30T06:56:50.106Z,99.90
2022-09-30T06:59:18.173Z,99.90
2022-09-30T07:01:48.490Z,99.90
2022-09-30T07:04:18.313Z,99.90
2022-09-30T07:06:52.299Z,99.90
2022-09-30T07:09:22.679Z,99.90
2022-09-30T07:11:50.998Z,99.90
2022-09-30T07:14:19.628Z,99.90
2022-09-30T07:16:55.605Z,99.90
2022-09-30T07:19:26.221Z,99.90
2022-09-30T07:21:54.427Z,99.90
2022-09-30T07:24:22.775Z,99.90
2022-09-30T07:26:50.716Z,99.90
2022-09-30T07:29:19.021Z,99.90
2022-09-30T07:31:47.608Z,99.90
2022-09-30T07:34:17.068Z,99.90
2022-09-30T07:36:47.628Z,99.90
2022-09-30T07:39:16.142Z,99.90
2022-09-30T07:41:45.719Z,99.90
2022-09-30T07:44:15.180Z,99.90
2022-09-30T07:46:44.617Z,99.90
2022-09-30T07:49:19.872Z,99.90
2022-09-30T07:51:50.588Z,99.90
2022-09-30T07:54:22.605Z,99.90
2022-09-30T07:57:14.777Z,99.90
2022-09-30T07:59:44.129Z,99.90
2022-09-30T08:02:16.712Z,99.90
2022-09-30T08:04:45.326Z,99.90
2022-09-30T08:07:16.549Z,99.90
2022-09-30T08:09:44.558Z,99.90
2022-09-30T08:12:12.470Z,99.90
2022-09-30T08:14:40.713Z,99.90
2022-09-30T08:17:08.677Z,99.90
2022-09-30T08:19:36.573Z,99.90
2022-09-30T08:22:06.313Z,99.90
2022-09-30T08:24:37.046Z,99.90
2022-09-30T08:27:06.106Z,99.90
2022-09-30T08:32:21.936Z,99.90
2022-09-30T08:34:50.191Z,99.90
2022-09-30T08:37:18.562Z,99.90
2022-09-30T08:39:48.505Z,99.90
2022-09-30T08:42:41.320Z,99.90
2022-09-30T08:45:20.697Z,99.90
2022-09-30T08:47:56.305Z,99.90
2022-09-30T08:50:30.277Z,99.90
2022-09-30T08:53:02.174Z,99.90
2022-09-30T08:55:39.520Z,99.90
2022-09-30T08:58:12.531Z,99.90
2022-09-30T09:00:44.040Z,99.90
2022-09-30T09:03:14.430Z,99.90
2022-09-30T09:05:52.855Z,99.90
2022-09-30T09:08:32.892Z,99.90
2022-09-30T09:11:09.267Z,99.90
2022-09-30T09:13:48.219Z,99.90
2022-09-30T09:16:23.088Z,99.90
2022-09-30T09:19:00.857Z,99.90
2022-09-30T09:21:40.508Z,99.90
2022-09-30T09:24:23.216Z,99.90
2022-09-30T09:26:54.905Z,99.90
2022-09-30T09:29:40.752Z,99.90
2022-09-30T09:32:14.993Z,99.90
2022-09-30T09:34:42.997Z,99.90
2022-09-30T09:37:21.476Z,99.90
2022-09-30T09:40:04.793Z,99.90
2022-09-30T09:42:51.787Z,99.90
2022-09-30T09:45:30.557Z,99.90
2022-09-30T09:47:59.983Z,99.90
2022-09-30T09:50:38.785Z,99.90
2022-09-30T09:53:35.241Z,99.90
2022-09-30T09:56:04.392Z,99.90
2022-09-30T09:58:34.375Z,99.90
2022-09-30T10:01:32.617Z,99.90
2022-09-30T10:04:17.936Z,99.90
2022-09-30T10:06:52.268Z,99.90
2022-09-30T10:09:25.817Z,99.90
2022-09-30T10:12:16.418Z,99.90
2022-09-30T10:14:52.904Z,99.90
2022-09-30T10:17:22.826Z,99.90
2022-09-30T10:19:53.203Z,99.90
2022-09-30T10:22:25.720Z,99.90
2022-09-30T10:25:09.703Z,99.90
2022-09-30T10:27:37.942Z,99.90
2022-09-30T10:30:08.514Z,99.90
2022-09-30T10:32:37.488Z,99.90
2022-09-30T10:35:08.162Z,99.90
2022-09-30T10:37:36.154Z,99.90
2022-09-30T10:40:08.932Z,99.90
2022-09-30T10:42:41.716Z,99.90
2022-09-30T10:45:21.409Z,99.90
2022-09-30T10:47:52.238Z,99.90
2022-09-30T10:50:24.919Z,99.90
2022-09-30T10:52:56.963Z,99.90
2022-09-30T10:55:32.408Z,99.90
2022-09-30T10:58:21.468Z,99.90
2022-09-30T11:00:55.520Z,99.90
2022-09-30T11:03:28.852Z,99.90
2022-09-30T11:06:01.237Z,99.90
2022-09-30T11:08:37.318Z,99.90
2022-09-30T11:11:13.988Z,99.90
2022-09-30T11:13:45.872Z,99.90
2022-09-30T11:16:20.769Z,99.90
2022-09-30T11:18:53.197Z,99.90
2022-09-30T11:21:26.195Z,99.90
2022-09-30T11:23:58.887Z,99.90
2022-09-30T11:26:36.757Z,99.90
2022-09-30T11:29:28.711Z,99.90
2022-09-30T11:32:07.771Z,99.90
2022-09-30T11:34:50.742Z,99.90
2022-09-30T11:37:31.161Z,99.90
2022-09-30T11:40:31.132Z,98.50
2022-09-30T11:43:08.342Z,96.80
2022-09-30T11:45:46.925Z,98.00
2022-09-30T11:48:32.780Z,99.90
2022-09-30T11:51:07.005Z,99.10
2022-09-30T11:53:49.343Z,99.90
2022-09-30T11:56:32.857Z,98.60
2022-09-30T11:59:04.290Z,98.40
2022-09-30T12:01:37.384Z,95.10
2022-09-30T12:04:14.380Z,95.90
2022-09-30T12:06:45.409Z,97.20
2022-09-30T12:09:20.763Z,94.10
2022-09-30T12:11:55.592Z,94.30
2022-09-30T12:14:29.667Z,95.50
2022-09-30T12:17:01.151Z,95.30
2022-09-30T12:19:37.566Z,95.10
2022-09-30T12:24:40.158Z,96.30
2022-09-30T12:27:17.191Z,97.10
2022-09-30T12:30:12.514Z,96.10
2022-09-30T12:33:21.257Z,94.20
2022-09-30T12:36:23.177Z,92.80
2022-09-30T12:39:27.362Z,94.60
2022-09-30T12:42:15.537Z,94.60
2022-09-30T12:45:19.981Z,94.30
2022-09-30T12:47:50.046Z,93.40
2022-09-30T12:50:21.689Z,91.80
2022-09-30T12:52:51.089Z,96.50
2022-09-30T12:55:30.800Z,95.30
2022-09-30T12:58:02.289Z,93.00
2022-09-30T13:00:34.557Z,88.40
2022-09-30T13:03:08.379Z,92.40
2022-09-30T13:05:52.600Z,94.00
2022-09-30T13:08:52.277Z,94.00
2022-09-30T13:11:44.203Z,94.30
2022-09-30T13:14:26.148Z,91.40
2022-09-30T13:17:37.396Z,94.10
2022-09-30T13:20:52.313Z,93.60
2022-09-30T13:23:38.052Z,91.80
2022-09-30T13:26:28.590Z,92.90
2022-09-30T13:29:43.710Z,91.40
2022-09-30T13:32:13.085Z,92.00
2022-09-30T13:34:58.127Z,94.40
2022-09-30T13:37:40.620Z,94.70
2022-09-30T13:40:28.826Z,92.90
2022-09-30T13:43:15.035Z,93.10
2022-09-30T13:45:44.568Z,93.30
2022-09-30T13:48:17.557Z,93.10
2022-09-30T13:50:49.112Z,92.90
2022-09-30T13:53:23.757Z,91.30
2022-09-30T13:55:54.496Z,84.10
2022-09-30T13:59:06.666Z,84.90
2022-09-30T14:01:52.823Z,83.80
2022-09-30T14:04:47.426Z,83.80
2022-09-30T14:07:26.341Z,79.30
2022-09-30T14:10:14.627Z,85.20
2022-09-30T14:12:57.285Z,91.40
2022-09-30T14:15:49.125Z,90.00
2022-09-30T14:18:54.088Z,91.20
2022-09-30T14:21:35.961Z,92.40
2022-09-30T14:24:11.422Z,90.30
2022-09-30T14:27:10.853Z,91.90
2022-09-30T14:29:50.493Z,91.10
2022-09-30T14:32:21.026Z,91.80
2022-09-30T14:34:50.246Z,86.10
2022-09-30T14:37:26.896Z,90.10
2022-09-30T14:39:55.200Z,90.80
2022-09-30T14:42:31.314Z,90.60
2022-09-30T14:45:04.625Z,86.90
2022-09-30T14:47:35.561Z,92.30
2022-09-30T14:50:04.543Z,89.20
2022-09-30T14:52:39.510Z,91.90
2022-09-30T14:55:27.022Z,91.30
2022-09-30T14:57:56.591Z,93.60
2022-09-30T15:00:31.611Z,92.60
2022-09-30T15:03:00.992Z,93.50
2022-09-30T15:05:29.957Z,93.70
2022-09-30T15:07:59.382Z,96.60
2022-09-30T15:10:29.120Z,95.10
2022-09-30T15:12:57.081Z,95.50
2022-09-30T15:15:29.182Z,92.80
2022-09-30T15:17:57.509Z,94.00
2022-09-30T15:20:30.350Z,93.90
2022-09-30T15:23:03.243Z,95.40
2022-09-30T15:25:32.693Z,95.20
2022-09-30T15:28:00.783Z,94.60
2022-09-30T15:30:30.238Z,94.90
2022-09-30T15:33:01.560Z,93.60
2022-09-30T15:35:30.420Z,95.10
2022-09-30T15:38:09.525Z,97.00
2022-09-30T15:40:46.991Z,97.10
2022-09-30T15:43:16.470Z,99.90
2022-09-30T15:45:46.435Z,98.00
2022-09-30T15:48:36.401Z,97.60
2022-09-30T15:51:25.963Z,98.50
2022-09-30T15:54:00.373Z,98.50
2022-09-30T15:56:35.537Z,98.50
2022-09-30T15:59:07.633Z,98.20
2022-09-30T16:01:38.139Z,99.00
2022-09-30T16:04:11.045Z,99.90
2022-09-30T16:06:46.251Z,99.90
2022-09-30T16:09:26.417Z,99.90
2022-09-30T16:12:06.815Z,99.90
2022-09-30T16:14:41.602Z,99.90
2022-09-30T16:17:18.205Z,99.90
2022-09-30T16:19:52.161Z,99.90
2022-09-30T16:22:51.915Z,99.90
2022-09-30T16:25:26.386Z,99.90
2022-09-30T16:27:58.643Z,99.90
2022-09-30T16:30:27.576Z,99.90
2022-09-30T16:32:59.061Z,99.90
2022-09-30T16:35:28.977Z,99.90
2022-09-30T16:38:01.483Z,99.90
2022-09-30T16:40:32.648Z,99.90
2022-09-30T16:43:04.381Z,99.90
2022-09-30T16:45:35.634Z,99.90
2022-09-30T16:48:07.018Z,99.90
2022-09-30T16:50:39.880Z,99.90
2022-09-30T16:53:10.828Z,99.90
2022-09-30T16:55:40.356Z,99.90
2022-09-30T16:58:12.184Z,99.90
2022-09-30T17:00:43.279Z,99.90
2022-09-30T17:03:13.924Z,99.90
2022-09-30T17:05:45.410Z,99.90
2022-09-30T17:08:17.201Z,99.90
2022-09-30T17:10:50.093Z,99.90
2022-09-30T17:13:19.390Z,99.90
2022-09-30T17:15:52.328Z,99.90
2022-09-30T17:18:20.672Z,99.90
2022-09-30T17:20:52.671Z,99.90
2022-09-30T17:23:21.670Z,99.90
2022-09-30T17:25:51.282Z,99.90
2022-09-30T17:28:19.769Z,99.90
2022-09-30T17:30:49.304Z,99.90
2022-09-30T17:33:19.706Z,99.90
2022-09-30T17:36:00.281Z,99.90
2022-09-30T17:38:28.896Z,99.90
2022-09-30T17:41:16.338Z,99.90
2022-09-30T17:43:45.461Z,99.90
2022-09-30T17:46:15.199Z,99.90
2022-09-30T17:48:44.089Z,99.90
2022-09-30T17:51:12.039Z,99.90
2022-09-30T17:53:40.068Z,99.90
2022-09-30T17:56:19.362Z,99.90
2022-09-30T17:58:49.114Z,99.90
2022-09-30T18:01:18.900Z,99.90
2022-09-30T18:03:46.960Z,99.90
2022-09-30T18:06:15.491Z,99.90
2022-09-30T18:08:43.620Z,99.90
2022-09-30T18:11:12.934Z,99.90
2022-09-30T18:13:40.815Z,99.90
2022-09-30T18:16:09.088Z,99.90
2022-09-30T18:18:37.168Z,99.90
2022-09-30T18:21:05.385Z,99.90
2022-09-30T18:23:33.306Z,99.90
2022-09-30T18:26:01.488Z,99.90
2022-09-30T18:28:30.842Z,99.90
2022-09-30T18:31:04.862Z,99.90
2022-09-30T18:33:33.043Z,99.90
2022-09-30T18:36:06.914Z,99.90
2022-09-30T18:38:35.311Z,99.90
2022-09-30T18:41:03.284Z,99.90
2022-09-30T18:43:33.565Z,99.90
2022-09-30T18:46:01.984Z,99.90
2022-09-30T18:48:30.869Z,99.90
2022-09-30T18:51:03.358Z,99.90
2022-09-30T18:53:34.609Z,99.90
2022-09-30T18:56:03.696Z,99.90
2022-09-30T18:58:33.072Z,99.90
2022-09-30T19:01:05.816Z,99.90
2022-09-30T19:03:34.535Z,99.90
2022-09-30T19:06:08.349Z,99.90
2022-09-30T19:08:36.315Z,99.90
2022-09-30T19:11:12.972Z,99.90
2022-09-30T19:13:44.119Z,99.90
2022-09-30T19:16:12.566Z,99.90
2022-09-30T19:18:41.114Z,99.90
2022-09-30T19:21:11.755Z,99.90
2022-09-30T19:23:40.574Z,99.90
2022-09-30T19:26:10.949Z,99.90
2022-09-30T19:28:39.971Z,99.90
2022-09-30T19:31:11.748Z,99.90
2022-09-30T19:33:54.483Z,99.90
2022-09-30T19:36:28.843Z,99.90
2022-09-30T19:39:12.153Z,99.90
2022-09-30T19:41:44.609Z,99.90
2022-09-30T19:44:19.488Z,99.90
2022-09-30T19:46:50.764Z,99.90
2022-09-30T19:49:23.551Z,99.90
2022-09-30T19:51:55.130Z,99.90
2022-09-30T19:54:36.628Z,99.90
2022-09-30T19:57:09.297Z,99.90
2022-09-30T19:59:37.589Z,99.90
2022-09-30T20:02:09.787Z,99.90
2022-09-30T20:04:39.477Z,99.90
2022-09-30T20:07:08.537Z,99.90
2022-09-30T20:09:36.444Z,99.90
2022-09-30T20:12:08.405Z,99.90
2022-09-30T20:14:56.687Z,99.90
2022-09-30T20:17:26.856Z,99.90
2022-09-30T20:20:17.319Z,99.90
2022-09-30T20:22:50.355Z,99.90
2022-09-30T20:25:18.567Z,99.90
2022-09-30T20:27:52.884Z,99.90
2022-09-30T20:30:21.189Z,99.90
2022-09-30T20:32:51.110Z,99.90
2022-09-30T20:35:21.262Z,99.90
2022-09-30T20:37:56.800Z,99.90
2022-09-30T20:40:25.036Z,99.90
2022-09-30T20:43:06.384Z,99.90
2022-09-30T20:45:46.610Z,99.90
2022-09-30T20:48:23.409Z,99.90
2022-09-30T20:50:51.630Z,99.90
2022-09-30T20:53:24.214Z,99.90
2022-09-30T20:55:56.038Z,99.90
2022-09-30T20:58:24.130Z,99.90
2022-09-30T21:00:53.120Z,99.90
2022-09-30T21:03:35.966Z,99.90
2022-09-30T21:06:04.149Z,99.90
2022-09-30T21:08:32.838Z,99.90
2022-09-30T21:11:03.534Z,99.90
2022-09-30T21:13:31.543Z,99.90
2022-09-30T21:16:01.817Z,99.90
2022-09-30T21:18:31.846Z,99.90
2022-09-30T21:21:01.611Z,99.90
2022-09-30T21:23:31.309Z,99.90
2022-09-30T21:26:00.292Z,99.90
2022-09-30T21:28:28.927Z,99.90
2022-09-30T21:30:57.867Z,99.90
2022-09-30T21:33:26.693Z,99.90
2022-09-30T21:36:01.447Z,99.90
2022-09-30T21:38:29.669Z,99.90
2022-09-30T21:41:01.923Z,99.90
2022-09-30T21:43:31.783Z,99.90
2022-09-30T21:46:01.219Z,99.90
2022-09-30T21:48:30.598Z,99.90
2022-09-30T21:51:00.714Z,99.90
2022-09-30T21:53:29.438Z,99.90
2022-09-30T21:55:58.879Z,99.90
2022-09-30T21:58:27.488Z,99.90
2022-09-30T22:00:59.934Z,99.90
2022-09-30T22:03:30.265Z,99.90
2022-09-30T22:06:00.564Z,99.90
2022-09-30T22:08:32.921Z,99.90
2022-09-30T22:11:00.923Z,99.90
2022-09-30T22:13:31.787Z,99.90
2022-09-30T22:16:05.398Z,99.90
2022-09-30T22:18:34.319Z,99.90
2022-09-30T22:21:06.347Z,99.90
2022-09-30T22:23:34.563Z,99.90
2022-09-30T22:26:08.606Z,99.90
2022-09-30T22:28:36.944Z,99.90
2022-09-30T22:31:16.376Z,99.90
2022-09-30T22:34:02.217Z,99.90
2022-09-30T22:36:49.373Z,99.90
2022-09-30T22:39:18.071Z,99.90
2022-09-30T22:41:46.060Z,99.90
2022-09-30T22:44:16.871Z,99.90
2022-09-30T22:46:45.288Z,99.90
2022-09-30T22:49:13.617Z,99.90
2022-09-30T22:51:43.063Z,99.90
2022-09-30T22:54:12.248Z,99.90
2022-09-30T22:56:40.359Z,99.90
2022-09-30T22:59:08.276Z,99.90
2022-09-30T23:01:36.437Z,99.90
2022-09-30T23:04:05.348Z,99.90
2022-09-30T23:06:33.323Z,99.90
2022-09-30T23:09:05.701Z,99.90
2022-09-30T23:11:35.959Z,99.90
2022-09-30T23:14:04.760Z,99.90
2022-09-30T23:16:33.053Z,99.90
2022-09-30T23:19:01.905Z,99.90
2022-09-30T23:21:30.074Z,99.90
2022-09-30T23:23:58.122Z,99.90
2022-09-30T23:26:29.111Z,99.90
2022-09-30T23:28:58.968Z,99.90
2022-09-30T23:31:27.577Z,99.90
2022-09-30T23:33:58.459Z,99.90
2022-09-30T23:36:29.643Z,99.90
2022-09-30T23:39:03.239Z,99.90
2022-09-30T23:41:34.391Z,99.90
2022-09-30T23:44:03.881Z,99.90
2022-09-30T23:46:32.621Z,99.90
2022-09-30T23:49:00.792Z,99.90
2022-09-30T23:51:28.787Z,99.90
2022-09-30T23:53:56.853Z,99.90
2022-09-30T23:56:25.678Z,99.90
2022-09-30T23:58:55.021Z,99.90
